createdAt,value
2022-09-18T00:00:14.515Z,15.98
2022-09-18T00:01:19.726Z,9.43
2022-09-18T00:02:21.944Z,12.18
2022-09-18T00:03:25.059Z,10.00
2022-09-18T00:04:27.570Z,16.92
2022-09-18T00:05:30.606Z,20.15
2022-09-18T00:06:36.399Z,16.92
2022-09-18T00:07:39.548Z,9.63
2022-09-18T00:08:43.702Z,14.00
2022-09-18T00:09:47.242Z,14.75
2022-09-18T00:10:50.608Z,11.15
2022-09-18T00:11:55.561Z,12.68
2022-09-18T00:12:59.309Z,13.55
2022-09-18T00:14:02.346Z,15.45
2022-09-18T00:15:07.099Z,12.32
2022-09-18T00:16:12.298Z,12.30
2022-09-18T00:17:14.655Z,15.45
2022-09-18T00:18:17.702Z,11.98
2022-09-18T00:19:20.528Z,14.35
2022-09-18T00:20:23.562Z,22.52
2022-09-18T00:21:26.626Z,13.40
2022-09-18T00:22:29.667Z,17.15
2022-09-18T00:23:31.709Z,11.55
2022-09-18T00:24:34.737Z,17.15
2022-09-18T00:25:36.786Z,17.42
2022-09-18T00:26:41.853Z,18.50
2022-09-18T00:27:43.899Z,18.65
2022-09-18T00:28:47.360Z,14.88
2022-09-18T00:29:49.704Z,15.82
2022-09-18T00:30:54.634Z,16.38
2022-09-18T00:31:56.761Z,14.48
2022-09-18T00:32:59.891Z,15.60
2022-09-18T00:34:04.005Z,17.40
2022-09-18T00:35:08.020Z,22.40
2022-09-18T00:36:12.253Z,13.38
2022-09-18T00:37:15.439Z,17.35
2022-09-18T00:38:17.634Z,18.83
2022-09-18T00:39:20.681Z,19.83
2022-09-18T00:40:22.793Z,14.52
2022-09-18T00:41:28.517Z,14.60
2022-09-18T00:42:31.917Z,12.18
2022-09-18T00:43:37.357Z,17.23
2022-09-18T00:44:42.020Z,23.05
2022-09-18T00:45:47.478Z,12.35
2022-09-18T00:46:49.569Z,12.00
2022-09-18T00:47:53.720Z,12.98
2022-09-18T00:49:03.364Z,20.73
2022-09-18T00:50:12.340Z,15.40
2022-09-18T00:51:15.667Z,15.57
2022-09-18T00:52:21.218Z,17.75
2022-09-18T00:53:24.105Z,13.30
2022-09-18T00:54:30.154Z,13.55
2022-09-18T00:55:34.856Z,14.25
2022-09-18T00:56:38.871Z,12.25
2022-09-18T00:57:49.457Z,9.95
2022-09-18T00:58:52.571Z,18.92
2022-09-18T00:59:55.228Z,21.67
2022-09-18T01:01:02.369Z,16.88
2022-09-18T01:02:04.880Z,16.23
2022-09-18T01:03:08.085Z,15.43
2022-09-18T01:04:11.236Z,11.23
2022-09-18T01:05:17.522Z,13.70
2022-09-18T01:06:27.991Z,16.02
2022-09-18T01:07:42.909Z,11.52
2022-09-18T01:08:56.372Z,12.30
2022-09-18T01:10:12.188Z,10.93
2022-09-18T01:11:27.669Z,10.95
2022-09-18T01:12:39.055Z,15.63
2022-09-18T01:13:52.042Z,13.30
2022-09-18T01:15:04.881Z,17.52
2022-09-18T01:16:14.470Z,10.65
2022-09-18T01:17:27.149Z,14.55
2022-09-18T01:18:40.393Z,9.20
2022-09-18T01:20:21.549Z,14.55
2022-09-18T01:21:32.984Z,16.20
2022-09-18T01:22:51.508Z,18.30
2022-09-18T01:24:28.400Z,14.50
2022-09-18T01:25:38.844Z,15.30
2022-09-18T01:26:51.238Z,13.05
2022-09-18T01:28:11.831Z,19.90
2022-09-18T01:29:22.177Z,13.10
2022-09-18T01:30:24.918Z,11.07
2022-09-18T01:31:32.580Z,14.68
2022-09-18T01:32:41.485Z,15.48
2022-09-18T01:33:51.247Z,17.40
2022-09-18T01:35:00.047Z,12.48
2022-09-18T01:36:08.593Z,15.38
2022-09-18T01:37:17.457Z,13.95
2022-09-18T01:38:25.003Z,10.98
2022-09-18T01:39:34.638Z,12.15
2022-09-18T01:40:41.005Z,17.08
2022-09-18T01:41:50.899Z,21.02
2022-09-18T01:43:01.608Z,15.82
2022-09-18T01:44:09.153Z,13.15
2022-09-18T01:45:17.287Z,14.63
2022-09-18T01:46:20.841Z,14.75
2022-09-18T01:47:28.976Z,13.38
2022-09-18T01:48:34.031Z,15.18
2022-09-18T01:49:42.794Z,12.80
2022-09-18T01:50:53.188Z,12.30
2022-09-18T01:52:01.384Z,14.98
2022-09-18T01:53:11.197Z,14.93
2022-09-18T01:54:16.238Z,14.93
2022-09-18T01:55:23.713Z,16.73
2022-09-18T01:56:27.447Z,15.07
2022-09-18T01:57:37.608Z,19.52
2022-09-18T01:58:42.471Z,15.32
2022-09-18T01:59:48.061Z,19.55
2022-09-18T02:00:55.431Z,15.30
2022-09-18T02:02:03.508Z,13.95
2022-09-18T02:03:11.837Z,18.40
2022-09-18T02:04:22.071Z,14.60
2022-09-18T02:05:28.919Z,10.82
2022-09-18T02:06:36.377Z,15.10
2022-09-18T02:07:48.600Z,14.73
2022-09-18T02:08:54.308Z,12.95
2022-09-18T02:09:59.615Z,17.48
2022-09-18T02:11:07.155Z,17.60
2022-09-18T02:12:15.880Z,15.82
2022-09-18T02:13:23.996Z,9.98
2022-09-18T02:14:32.917Z,21.15
2022-09-18T02:16:08.473Z,18.00
2022-09-18T02:17:17.452Z,12.30
2022-09-18T02:18:27.285Z,12.02
2022-09-18T02:19:35.633Z,17.15
2022-09-18T02:20:42.419Z,17.92
2022-09-18T02:21:47.290Z,15.30
2022-09-18T02:22:53.937Z,14.05
2022-09-18T02:24:03.357Z,16.88
2022-09-18T02:25:13.125Z,15.25
2022-09-18T02:26:19.555Z,15.48
2022-09-18T02:27:24.873Z,19.00
2022-09-18T02:28:31.249Z,13.20
2022-09-18T02:29:37.277Z,14.52
2022-09-18T02:30:40.949Z,12.07
2022-09-18T02:31:43.517Z,19.17
2022-09-18T02:32:46.874Z,15.55
2022-09-18T02:33:49.376Z,16.35
2022-09-18T02:34:52.502Z,17.05
2022-09-18T02:36:08.261Z,17.27
2022-09-18T02:37:34.290Z,16.83
2022-09-18T02:38:44.438Z,16.13
2022-09-18T02:40:00.268Z,14.18
2022-09-18T02:41:12.112Z,15.35
2022-09-18T02:42:27.988Z,21.52
2022-09-18T02:43:40.483Z,17.50
2022-09-18T02:44:52.065Z,21.75
2022-09-18T02:46:01.451Z,15.45
2022-09-18T02:47:14.715Z,7.72
2022-09-18T02:48:31.699Z,14.15
2022-09-18T02:49:46.217Z,17.65
2022-09-18T02:50:56.506Z,16.77
2022-09-18T02:52:06.149Z,21.23
2022-09-18T02:53:13.870Z,11.73
2022-09-18T02:54:25.449Z,15.88
2022-09-18T02:55:37.680Z,12.77
2022-09-18T02:56:45.100Z,14.52
2022-09-18T02:57:49.822Z,13.95
2022-09-18T02:58:56.541Z,16.10
2022-09-18T03:00:03.883Z,16.95
2022-09-18T03:01:09.438Z,13.95
2022-09-18T03:02:12.874Z,13.98
2022-09-18T03:03:18.542Z,11.80
2022-09-18T03:04:28.445Z,19.58
2022-09-18T03:05:39.988Z,13.10
2022-09-18T03:06:42.171Z,13.30
2022-09-18T03:07:45.351Z,9.38
2022-09-18T03:08:47.380Z,15.55
2022-09-18T03:09:50.553Z,13.35
2022-09-18T03:10:52.685Z,16.05
2022-09-18T03:11:55.979Z,12.32
2022-09-18T03:12:58.234Z,10.95
2022-09-18T03:14:01.701Z,13.07
2022-09-18T03:15:06.268Z,14.68
2022-09-18T03:16:10.919Z,15.25
2022-09-18T03:17:13.048Z,14.00
2022-09-18T03:18:16.126Z,14.35
2022-09-18T03:19:18.562Z,12.95
2022-09-18T03:20:21.759Z,9.88
2022-09-18T03:21:24.449Z,15.13
2022-09-18T03:22:27.568Z,11.23
2022-09-18T03:23:29.612Z,13.20
2022-09-18T03:24:48.092Z,10.60
2022-09-18T03:25:52.211Z,11.93
2022-09-18T03:26:55.650Z,11.82
2022-09-18T03:28:00.328Z,15.35
2022-09-18T03:29:15.284Z,13.05
2022-09-18T03:30:19.693Z,12.65
2022-09-18T03:31:25.436Z,10.07
2022-09-18T03:32:27.572Z,13.82
2022-09-18T03:33:30.619Z,11.98
2022-09-18T03:34:32.660Z,12.18
2022-09-18T03:35:35.715Z,9.55
2022-09-18T03:36:39.405Z,14.10
2022-09-18T03:37:42.410Z,14.40
2022-09-18T03:38:47.156Z,12.73
2022-09-18T03:39:49.324Z,14.10
2022-09-18T03:40:52.362Z,17.17
2022-09-18T03:41:54.420Z,14.43
2022-09-18T03:42:57.649Z,11.63
2022-09-18T03:44:00.319Z,12.32
2022-09-18T03:45:03.418Z,16.67
2022-09-18T03:46:07.363Z,10.88
2022-09-18T03:47:10.626Z,11.38
2022-09-18T03:48:12.667Z,12.60
2022-09-18T03:49:15.743Z,13.75
2022-09-18T03:50:18.508Z,13.45
2022-09-18T03:51:22.299Z,14.32
2022-09-18T03:52:24.436Z,9.35
2022-09-18T03:53:35.960Z,14.13
2022-09-18T03:55:01.035Z,11.13
2022-09-18T03:56:23.122Z,14.98
2022-09-18T03:57:48.433Z,14.48
2022-09-18T03:59:11.117Z,9.02
2022-09-18T04:00:25.627Z,7.18
2022-09-18T04:01:35.200Z,15.75
2022-09-18T04:02:55.893Z,12.23
2022-09-18T04:04:19.307Z,9.57
2022-09-18T04:05:41.655Z,10.30
2022-09-18T04:07:10.949Z,17.63
2022-09-18T04:08:21.933Z,15.98
2022-09-18T04:09:51.076Z,9.93
2022-09-18T04:10:53.487Z,8.07
2022-09-18T04:11:56.562Z,10.90
2022-09-18T04:12:58.667Z,16.85
2022-09-18T04:14:07.102Z,9.88
2022-09-18T04:15:10.269Z,10.88
2022-09-18T04:16:13.381Z,11.25
2022-09-18T04:17:16.931Z,11.43
2022-09-18T04:18:20.062Z,11.75
2022-09-18T04:19:22.240Z,10.55
2022-09-18T04:20:26.023Z,12.65
2022-09-18T04:21:28.241Z,13.40
2022-09-18T04:22:31.307Z,11.45
2022-09-18T04:23:33.290Z,18.02
2022-09-18T04:24:36.473Z,13.15
2022-09-18T04:25:40.094Z,15.13
2022-09-18T04:26:43.174Z,12.32
2022-09-18T04:27:46.188Z,17.75
2022-09-18T04:28:49.547Z,7.93
2022-09-18T04:29:54.594Z,15.18
2022-09-18T04:30:59.284Z,11.88
2022-09-18T04:32:01.700Z,11.65
2022-09-18T04:33:08.020Z,13.38
2022-09-18T04:34:10.233Z,10.63
2022-09-18T04:35:13.732Z,11.15
2022-09-18T04:36:17.549Z,12.93
2022-09-18T04:37:21.455Z,11.45
2022-09-18T04:38:27.770Z,9.10
2022-09-18T04:39:32.730Z,11.68
2022-09-18T04:40:38.121Z,13.05
2022-09-18T04:41:41.203Z,10.95
2022-09-18T04:42:43.300Z,9.52
2022-09-18T04:43:46.494Z,10.07
2022-09-18T04:44:49.724Z,12.80
2022-09-18T04:45:52.865Z,9.32
2022-09-18T04:46:55.180Z,10.15
2022-09-18T04:47:58.287Z,13.05
2022-09-18T04:49:02.482Z,11.30
2022-09-18T04:50:08.853Z,9.38
2022-09-18T04:51:10.915Z,14.48
2022-09-18T04:52:32.802Z,11.50
2022-09-18T04:53:38.033Z,9.18
2022-09-18T04:54:42.129Z,10.85
2022-09-18T04:55:45.855Z,7.10
2022-09-18T04:56:49.900Z,9.15
2022-09-18T04:57:54.623Z,10.85
2022-09-18T04:58:59.996Z,9.77
2022-09-18T05:00:02.655Z,15.10
2022-09-18T05:01:06.226Z,8.25
2022-09-18T05:02:08.479Z,10.05
2022-09-18T05:03:12.377Z,9.57
2022-09-18T05:04:17.760Z,8.60
2022-09-18T05:05:29.420Z,8.95
2022-09-18T05:06:31.972Z,12.48
2022-09-18T05:07:36.623Z,9.55
2022-09-18T05:08:38.714Z,11.00
2022-09-18T05:09:43.004Z,9.23
2022-09-18T05:10:45.307Z,8.43
2022-09-18T05:11:49.310Z,9.23
2022-09-18T05:12:52.686Z,8.10
2022-09-18T05:13:57.009Z,11.15
2022-09-18T05:15:01.034Z,10.00
2022-09-18T05:16:04.843Z,12.82
2022-09-18T05:17:06.981Z,10.77
2022-09-18T05:18:23.122Z,10.98
2022-09-18T05:19:30.438Z,9.70
2022-09-18T05:20:41.900Z,9.65
2022-09-18T05:21:44.656Z,10.52
2022-09-18T05:22:48.436Z,12.77
2022-09-18T05:23:55.865Z,9.90
2022-09-18T05:24:58.933Z,15.52
2022-09-18T05:26:01.038Z,9.65
2022-09-18T05:27:04.765Z,12.32
2022-09-18T05:28:06.864Z,13.00
2022-09-18T05:29:21.464Z,12.15
2022-09-18T05:30:27.217Z,14.07
2022-09-18T05:31:33.728Z,12.52
2022-09-18T05:32:36.284Z,19.40
2022-09-18T05:33:41.269Z,14.77
2022-09-18T05:34:44.799Z,10.60
2022-09-18T05:35:47.936Z,17.08
2022-09-18T05:36:50.030Z,12.40
2022-09-18T05:37:54.098Z,18.65
2022-09-18T05:38:56.127Z,16.20
2022-09-18T05:40:00.552Z,11.13
2022-09-18T05:41:03.501Z,13.50
2022-09-18T05:42:07.130Z,15.63
2022-09-18T05:43:09.389Z,11.10
2022-09-18T05:44:13.104Z,12.18
2022-09-18T05:45:15.519Z,12.70
2022-09-18T05:46:18.907Z,11.60
2022-09-18T05:47:36.203Z,12.73
2022-09-18T05:48:39.859Z,16.65
2022-09-18T05:49:42.224Z,16.40
2022-09-18T05:50:46.807Z,16.75
2022-09-18T05:51:51.274Z,16.83
2022-09-18T05:53:03.866Z,13.02
2022-09-18T05:54:15.648Z,14.43
2022-09-18T05:55:22.396Z,11.38
2022-09-18T05:56:26.150Z,10.85
2022-09-18T05:57:30.034Z,18.88
2022-09-18T05:58:34.230Z,12.35
2022-09-18T05:59:36.899Z,13.80
2022-09-18T06:00:40.362Z,14.02
2022-09-18T06:01:48.021Z,15.55
2022-09-18T06:02:54.675Z,20.27
2022-09-18T06:03:59.511Z,14.50
2022-09-18T06:05:04.345Z,11.40
2022-09-18T06:06:09.390Z,17.60
2022-09-18T06:07:13.071Z,14.38
2022-09-18T06:08:16.069Z,10.02
2022-09-18T06:09:18.768Z,16.50
2022-09-18T06:10:23.306Z,11.55
2022-09-18T06:11:25.621Z,12.82
2022-09-18T06:12:28.678Z,11.82
2022-09-18T06:13:30.710Z,15.70
2022-09-18T06:14:33.759Z,11.25
2022-09-18T06:15:36.719Z,15.07
2022-09-18T06:16:42.441Z,14.52
2022-09-18T06:17:52.041Z,19.70
2022-09-18T06:18:55.250Z,19.67
2022-09-18T06:19:59.355Z,17.58
2022-09-18T06:21:02.449Z,16.52
2022-09-18T06:22:07.548Z,17.50
2022-09-18T06:23:11.697Z,11.50
2022-09-18T06:24:25.129Z,12.48
2022-09-18T06:25:48.679Z,9.90
2022-09-18T06:26:52.283Z,9.00
2022-09-18T06:27:58.781Z,9.38
2022-09-18T06:29:01.153Z,12.00
2022-09-18T06:30:10.065Z,14.57
2022-09-18T06:31:13.088Z,11.95
2022-09-18T06:32:30.877Z,12.15
2022-09-18T06:33:35.777Z,15.00
2022-09-18T06:34:38.872Z,14.40
2022-09-18T06:35:43.610Z,12.50
2022-09-18T06:36:46.324Z,9.27
2022-09-18T06:38:03.934Z,10.15
2022-09-18T06:39:32.010Z,8.55
2022-09-18T06:40:36.171Z,13.57
2022-09-18T06:41:50.284Z,10.85
2022-09-18T06:43:03.789Z,7.97
2022-09-18T06:44:32.859Z,15.32
2022-09-18T06:45:39.365Z,10.50
2022-09-18T06:46:42.546Z,15.20
2022-09-18T06:47:54.282Z,14.35
2022-09-18T06:48:57.819Z,11.25
2022-09-18T06:50:00.927Z,9.82
2022-09-18T06:51:04.399Z,13.07
2022-09-18T06:52:16.729Z,15.35
2022-09-18T06:53:21.290Z,9.43
2022-09-18T06:54:27.717Z,15.02
2022-09-18T06:55:32.404Z,11.98
2022-09-18T06:56:35.331Z,11.38
2022-09-18T06:57:38.563Z,7.40
2022-09-18T06:58:40.791Z,10.57
2022-09-18T06:59:43.815Z,11.43
2022-09-18T07:00:47.319Z,12.60
2022-09-18T07:01:57.968Z,12.23
2022-09-18T07:03:21.341Z,10.50
2022-09-18T07:04:56.602Z,10.45
2022-09-18T07:05:58.701Z,16.02
2022-09-18T07:08:04.873Z,11.32
2022-09-18T07:09:12.649Z,18.25
2022-09-18T07:10:38.659Z,8.40
2022-09-18T07:11:40.967Z,15.02
2022-09-18T07:12:48.318Z,9.68
2022-09-18T07:13:54.226Z,14.00
2022-09-18T07:14:56.583Z,8.25
2022-09-18T07:16:01.935Z,5.85
2022-09-18T07:17:04.085Z,11.48
2022-09-18T07:18:08.118Z,19.48
2022-09-18T07:19:10.302Z,13.55
2022-09-18T07:20:15.036Z,11.95
2022-09-18T07:21:18.743Z,16.08
2022-09-18T07:22:21.821Z,9.85
2022-09-18T07:23:24.310Z,16.98
2022-09-18T07:24:31.122Z,10.50
2022-09-18T07:25:33.950Z,13.90
2022-09-18T07:26:37.546Z,14.52
2022-09-18T07:27:40.623Z,10.00
2022-09-18T07:28:43.624Z,19.30
2022-09-18T07:30:04.130Z,9.90
2022-09-18T07:31:07.799Z,11.60
2022-09-18T07:32:11.786Z,10.77
2022-09-18T07:33:13.893Z,14.57
2022-09-18T07:34:22.571Z,13.02
2022-09-18T07:35:24.688Z,12.30
2022-09-18T07:36:28.035Z,9.55
2022-09-18T07:37:30.161Z,8.88
2022-09-18T07:38:50.652Z,13.90
2022-09-18T07:39:55.402Z,8.75
2022-09-18T07:41:18.747Z,12.13
2022-09-18T07:42:20.906Z,9.38
2022-09-18T07:43:27.661Z,12.65
2022-09-18T07:44:31.965Z,11.73
2022-09-18T07:45:36.088Z,12.40
2022-09-18T07:46:38.387Z,11.85
2022-09-18T07:47:43.678Z,9.02
2022-09-18T07:48:46.364Z,10.10
2022-09-18T07:49:57.376Z,9.90
2022-09-18T07:51:00.077Z,12.15
2022-09-18T07:52:03.360Z,11.15
2022-09-18T07:53:09.075Z,9.50
2022-09-18T07:54:14.692Z,12.20
2022-09-18T07:55:28.623Z,11.63
2022-09-18T07:56:32.809Z,9.35
2022-09-18T07:57:35.078Z,10.50
2022-09-18T07:58:56.622Z,13.30
2022-09-18T08:00:03.494Z,10.88
2022-09-18T08:01:08.237Z,10.43
2022-09-18T08:02:18.448Z,10.52
2022-09-18T08:03:20.584Z,11.45
2022-09-18T08:04:39.159Z,10.57
2022-09-18T08:05:55.313Z,13.73
2022-09-18T08:07:03.537Z,8.80
2022-09-18T08:08:25.523Z,10.00
2022-09-18T08:09:39.012Z,12.80
2022-09-18T08:11:03.302Z,9.45
2022-09-18T08:12:41.986Z,8.65
2022-09-18T08:13:58.448Z,12.50
2022-09-18T08:15:11.303Z,15.82
2022-09-18T08:16:42.198Z,11.00
2022-09-18T08:18:05.529Z,9.38
2022-09-18T08:19:24.553Z,10.38
2022-09-18T08:20:34.500Z,11.77
2022-09-18T08:21:53.171Z,13.82
2022-09-18T08:22:58.393Z,8.27
2022-09-18T08:24:03.212Z,6.78
2022-09-18T08:25:07.180Z,12.65
2022-09-18T08:26:11.598Z,10.43
2022-09-18T08:27:14.674Z,11.80
2022-09-18T08:28:16.750Z,7.90
2022-09-18T08:29:26.421Z,7.07
2022-09-18T08:30:35.712Z,12.90
2022-09-18T08:31:42.269Z,10.00
2022-09-18T08:32:45.684Z,13.35
2022-09-18T08:33:48.840Z,10.05
2022-09-18T08:34:51.020Z,9.07
2022-09-18T08:35:55.408Z,13.75
2022-09-18T08:37:03.310Z,13.10
2022-09-18T08:38:24.152Z,8.88
2022-09-18T08:39:50.110Z,13.27
2022-09-18T08:41:15.038Z,10.18
2022-09-18T08:42:28.880Z,11.90
2022-09-18T08:43:48.158Z,14.90
2022-09-18T08:44:56.942Z,10.18
2022-09-18T08:46:02.894Z,12.38
2022-09-18T08:47:11.294Z,14.30
2022-09-18T08:48:17.803Z,21.42
2022-09-18T08:49:25.876Z,18.00
2022-09-18T08:50:38.344Z,13.27
2022-09-18T08:51:52.317Z,10.50
2022-09-18T08:53:03.513Z,10.68
2022-09-18T08:54:40.824Z,13.10
2022-09-18T08:56:22.513Z,11.90
2022-09-18T08:57:57.810Z,11.52
2022-09-18T08:59:11.316Z,9.70
2022-09-18T09:00:20.323Z,10.23
2022-09-18T09:01:40.477Z,8.75
2022-09-18T09:02:49.313Z,8.65
2022-09-18T09:03:59.436Z,9.40
2022-09-18T09:05:08.306Z,8.95
2022-09-18T09:06:28.957Z,7.05
2022-09-18T09:07:55.124Z,8.27
2022-09-18T09:09:14.908Z,10.38
2022-09-18T09:10:36.097Z,7.80
2022-09-18T09:11:48.258Z,9.10
2022-09-18T09:13:06.680Z,10.15
2022-09-18T09:14:45.832Z,6.63
2022-09-18T09:15:55.455Z,11.40
2022-09-18T09:17:05.899Z,7.45
2022-09-18T09:18:16.956Z,9.88
2022-09-18T09:19:28.803Z,6.03
2022-09-18T09:20:45.602Z,7.30
2022-09-18T09:21:55.255Z,4.20
2022-09-18T09:23:04.256Z,9.23
2022-09-18T09:24:25.693Z,6.82
2022-09-18T09:27:23.371Z,10.43
2022-09-18T09:28:59.368Z,7.20
2022-09-18T09:30:22.034Z,8.02
2022-09-18T09:31:48.308Z,8.85
2022-09-18T09:33:08.207Z,9.57
2022-09-18T09:34:21.851Z,5.82
2022-09-18T09:35:36.410Z,5.78
2022-09-18T09:36:49.784Z,8.85
2022-09-18T09:37:53.855Z,8.52
2022-09-18T09:39:03.497Z,6.43
2022-09-18T09:40:14.642Z,10.55
2022-09-18T09:41:25.669Z,9.07
2022-09-18T09:42:33.602Z,7.95
2022-09-18T09:43:45.041Z,8.45
2022-09-18T09:44:54.226Z,6.32
2022-09-18T09:46:01.334Z,11.48
2022-09-18T09:47:16.600Z,10.30
2022-09-18T09:48:29.142Z,7.78
2022-09-18T09:49:35.251Z,9.30
2022-09-18T09:50:47.881Z,7.00
2022-09-18T09:51:58.016Z,8.93
2022-09-18T09:53:05.635Z,7.82
2022-09-18T09:54:10.424Z,10.02
2022-09-18T09:55:22.845Z,8.75
2022-09-18T09:56:33.238Z,10.88
2022-09-18T09:57:45.293Z,11.40
2022-09-18T09:58:56.176Z,7.78
2022-09-18T10:00:09.234Z,9.88
2022-09-18T10:01:36.984Z,8.05
2022-09-18T10:02:57.200Z,6.68
2022-09-18T10:04:19.260Z,10.73
2022-09-18T10:05:28.985Z,10.48
2022-09-18T10:06:42.650Z,9.55
2022-09-18T10:07:50.686Z,9.93
2022-09-18T10:09:02.417Z,10.05
2022-09-18T10:10:16.218Z,12.35
2022-09-18T10:11:19.516Z,11.10
2022-09-18T10:12:33.823Z,9.15
2022-09-18T10:14:47.469Z,6.35
2022-09-18T10:15:59.128Z,10.75
2022-09-18T10:17:05.933Z,4.70
2022-09-18T10:18:16.627Z,9.75
2022-09-18T10:19:23.212Z,6.80
2022-09-18T10:20:27.666Z,7.00
2022-09-18T10:21:36.067Z,6.05
2022-09-18T10:22:42.894Z,9.00
2022-09-18T10:23:50.789Z,7.97
2022-09-18T10:25:02.896Z,8.93
2022-09-18T10:26:10.205Z,7.25
2022-09-18T10:27:15.541Z,9.40
2022-09-18T10:28:18.488Z,10.30
2022-09-18T10:29:23.181Z,6.85
2022-09-18T10:30:29.432Z,12.05
2022-09-18T10:31:50.316Z,9.30
2022-09-18T10:32:54.810Z,8.82
2022-09-18T10:34:26.204Z,6.30
2022-09-18T10:35:44.482Z,9.52
2022-09-18T10:36:49.509Z,10.88
2022-09-18T10:37:54.059Z,8.55
2022-09-18T10:39:18.715Z,7.65
2022-09-18T10:40:30.553Z,7.15
2022-09-18T10:41:37.995Z,8.93
2022-09-18T10:42:43.039Z,12.15
2022-09-18T10:44:04.588Z,11.73
2022-09-18T10:45:22.958Z,10.48
2022-09-18T10:46:29.670Z,10.23
2022-09-18T10:47:36.302Z,14.35
2022-09-18T10:48:44.024Z,12.98
2022-09-18T10:49:51.819Z,8.48
2022-09-18T10:50:57.290Z,10.88
2022-09-18T10:52:24.498Z,10.07
2022-09-18T10:53:32.761Z,10.40
2022-09-18T10:54:58.226Z,9.77
2022-09-18T10:56:05.956Z,11.70
2022-09-18T10:57:26.507Z,7.18
2022-09-18T10:58:32.713Z,9.10
2022-09-18T10:59:35.163Z,10.90
2022-09-18T11:00:50.158Z,8.77
2022-09-18T11:01:56.293Z,7.15
2022-09-18T11:03:07.683Z,3.88
2022-09-18T11:04:16.978Z,6.20
2022-09-18T11:05:22.097Z,5.78
2022-09-18T11:06:30.130Z,5.05
2022-09-18T11:07:39.928Z,5.82
2022-09-18T11:08:46.390Z,5.68
2022-09-18T11:09:49.664Z,10.07
2022-09-18T11:10:56.945Z,13.68
2022-09-18T11:12:01.152Z,6.78
2022-09-18T11:13:07.099Z,7.05
2022-09-18T11:14:23.206Z,7.88
2022-09-18T11:15:36.502Z,7.72
2022-09-18T11:16:44.094Z,5.32
2022-09-18T11:17:51.340Z,4.45
2022-09-18T11:19:12.761Z,8.20
2022-09-18T11:20:24.875Z,7.90
2022-09-18T11:21:43.763Z,3.90
2022-09-18T11:22:47.360Z,6.13
2022-09-18T11:24:04.155Z,6.38
2022-09-18T11:25:17.675Z,7.13
2022-09-18T11:26:28.784Z,8.90
2022-09-18T11:27:45.963Z,7.03
2022-09-18T11:29:01.258Z,3.70
2022-09-18T11:30:15.053Z,4.03
2022-09-18T11:31:22.498Z,4.05
2022-09-18T11:32:31.877Z,5.70
2022-09-18T11:33:44.357Z,8.68
2022-09-18T11:34:51.583Z,5.75
2022-09-18T11:36:00.119Z,5.18
2022-09-18T11:37:08.841Z,5.77
2022-09-18T11:38:19.384Z,8.95
2022-09-18T11:39:28.191Z,6.20
2022-09-18T11:40:33.625Z,7.05
2022-09-18T11:41:38.704Z,2.67
2022-09-18T11:42:42.445Z,7.00
2022-09-18T11:43:46.834Z,5.85
2022-09-18T11:44:50.447Z,5.70
2022-09-18T11:46:01.556Z,7.70
2022-09-18T11:47:29.918Z,3.55
2022-09-18T11:48:39.922Z,4.57
2022-09-18T11:49:46.075Z,11.38
2022-09-18T11:50:55.815Z,8.15
2022-09-18T11:52:01.466Z,10.27
2022-09-18T11:53:16.395Z,10.00
2022-09-18T11:54:28.365Z,8.00
2022-09-18T11:55:35.233Z,9.40
2022-09-18T11:56:42.497Z,8.18
2022-09-18T11:57:56.193Z,8.63
2022-09-18T11:59:04.062Z,8.30
2022-09-18T12:00:15.505Z,8.45
2022-09-18T12:01:44.628Z,11.68
2022-09-18T12:03:01.118Z,6.60
2022-09-18T12:04:16.219Z,7.20
2022-09-18T12:05:24.597Z,7.88
2022-09-18T12:06:37.377Z,10.85
2022-09-18T12:07:44.275Z,8.48
2022-09-18T12:08:53.800Z,10.32
2022-09-18T12:10:06.249Z,9.93
2022-09-18T12:12:21.823Z,13.68
2022-09-18T12:13:47.051Z,7.20
2022-09-18T12:14:57.013Z,8.02
2022-09-18T12:16:05.487Z,9.75
2022-09-18T12:17:16.899Z,7.95
2022-09-18T12:18:25.695Z,6.95
2022-09-18T12:19:34.319Z,8.27
2022-09-18T12:20:41.537Z,9.75
2022-09-18T12:22:00.122Z,6.28
2022-09-18T12:23:04.826Z,8.18
2022-09-18T12:24:13.819Z,8.05
2022-09-18T12:25:18.047Z,10.52
2022-09-18T12:26:54.183Z,8.13
2022-09-18T12:28:07.459Z,8.73
2022-09-18T12:29:21.709Z,7.97
2022-09-18T12:30:35.757Z,9.20
2022-09-18T12:31:51.369Z,9.68
2022-09-18T12:33:14.462Z,10.13
2022-09-18T12:34:25.856Z,9.30
2022-09-18T12:35:39.086Z,11.25
2022-09-18T12:36:56.208Z,9.27
2022-09-18T12:38:11.358Z,8.00
2022-09-18T12:39:28.196Z,10.30
2022-09-18T12:41:02.313Z,11.05
2022-09-18T12:42:15.182Z,7.47
2022-09-18T12:43:38.223Z,10.05
2022-09-18T12:44:57.445Z,9.75
2022-09-18T12:46:12.750Z,10.70
2022-09-18T12:47:36.153Z,13.95
2022-09-18T12:48:51.531Z,8.48
2022-09-18T12:50:16.876Z,10.18
2022-09-18T12:51:39.313Z,9.07
2022-09-18T12:53:08.595Z,9.13
2022-09-18T12:54:32.375Z,7.05
2022-09-18T12:55:43.888Z,7.35
2022-09-18T12:57:02.021Z,5.05
2022-09-18T12:58:21.179Z,6.13
2022-09-18T12:59:43.746Z,7.20
2022-09-18T13:00:54.365Z,7.95
2022-09-18T13:02:42.750Z,4.47
2022-09-18T13:03:54.314Z,5.45
2022-09-18T13:07:18.131Z,8.23
2022-09-18T13:08:31.196Z,4.47
2022-09-18T13:09:41.527Z,5.03
2022-09-18T13:10:47.099Z,5.53
2022-09-18T13:11:54.033Z,4.13
2022-09-18T13:13:03.680Z,6.40
2022-09-18T13:14:12.831Z,7.65
2022-09-18T13:15:20.118Z,6.07
2022-09-18T13:16:28.631Z,7.13
2022-09-18T13:17:37.526Z,7.90
2022-09-18T13:18:46.816Z,4.78
2022-09-18T13:19:53.792Z,5.47
2022-09-18T13:21:00.844Z,4.72
2022-09-18T13:22:07.086Z,5.82
2022-09-18T13:23:17.034Z,8.90
2022-09-18T13:24:24.069Z,3.07
2022-09-18T13:25:30.966Z,6.78
2022-09-18T13:26:38.597Z,4.28
2022-09-18T13:27:42.100Z,8.10
2022-09-18T13:28:45.588Z,6.88
2022-09-18T13:29:56.922Z,5.85
2022-09-18T13:31:24.960Z,4.70
2022-09-18T13:32:40.943Z,4.95
2022-09-18T13:33:51.091Z,9.68
2022-09-18T13:34:56.855Z,6.35
2022-09-18T13:36:00.634Z,7.70
2022-09-18T13:37:06.521Z,4.65
2022-09-18T13:38:19.656Z,7.13
2022-09-18T13:39:27.060Z,6.78
2022-09-18T13:40:35.946Z,4.43
2022-09-18T13:41:45.225Z,6.55
2022-09-18T13:42:47.511Z,6.63
2022-09-18T13:43:55.426Z,6.05
2022-09-18T13:45:05.628Z,6.00
2022-09-18T13:46:12.128Z,7.82
2022-09-18T13:47:16.157Z,5.38
2022-09-18T13:48:28.094Z,8.77
2022-09-18T13:49:33.393Z,10.55
2022-09-18T13:50:37.102Z,7.32
2022-09-18T13:51:42.039Z,6.43
2022-09-18T13:52:47.495Z,9.35
2022-09-18T13:54:18.964Z,8.82
2022-09-18T13:55:48.444Z,10.80
2022-09-18T13:57:20.640Z,7.88
2022-09-18T13:58:36.517Z,5.15
2022-09-18T13:59:49.480Z,9.93
2022-09-18T14:00:55.821Z,4.40
2022-09-18T14:02:03.543Z,5.70
2022-09-18T14:03:35.723Z,6.78
2022-09-18T14:05:30.127Z,3.33
2022-09-18T14:06:45.192Z,1.65
2022-09-18T14:08:00.246Z,4.32
2022-09-18T14:09:16.065Z,4.95
2022-09-18T14:10:25.248Z,3.38
2022-09-18T14:11:29.904Z,4.88
2022-09-18T14:12:34.388Z,5.53
2022-09-18T14:13:48.935Z,5.78
2022-09-18T14:15:01.520Z,4.85
2022-09-18T14:16:10.161Z,6.57
2022-09-18T14:17:14.189Z,5.05
2022-09-18T14:18:24.547Z,5.63
2022-09-18T14:19:32.372Z,6.20
2022-09-18T14:20:35.210Z,5.47
2022-09-18T14:21:41.877Z,6.53
2022-09-18T14:22:44.114Z,3.95
2022-09-18T14:24:32.106Z,5.35
2022-09-18T14:25:46.347Z,7.93
2022-09-18T14:27:29.725Z,7.78
2022-09-18T14:28:33.574Z,8.10
2022-09-18T14:29:35.733Z,6.80
2022-09-18T14:30:38.851Z,7.03
2022-09-18T14:31:47.098Z,6.32
2022-09-18T14:33:01.768Z,6.45
2022-09-18T14:34:12.517Z,3.53
2022-09-18T14:36:26.097Z,6.85
2022-09-18T14:37:30.632Z,5.32
2022-09-18T14:38:36.270Z,5.43
2022-09-18T14:39:38.472Z,9.32
2022-09-18T14:40:41.853Z,6.13
2022-09-18T14:41:44.921Z,9.85
2022-09-18T14:42:49.879Z,7.03
2022-09-18T14:43:57.126Z,3.50
2022-09-18T14:45:20.553Z,5.43
2022-09-18T14:46:25.284Z,8.05
2022-09-18T14:47:27.598Z,4.18
2022-09-18T14:48:36.153Z,4.95
2022-09-18T14:49:43.645Z,6.68
2022-09-18T14:51:00.301Z,4.22
2022-09-18T14:52:04.568Z,4.65
2022-09-18T14:53:21.671Z,4.72
2022-09-18T14:54:25.650Z,6.53
2022-09-18T14:55:33.416Z,3.42
2022-09-18T14:56:37.455Z,7.55
2022-09-18T14:57:45.706Z,6.65
2022-09-18T14:58:51.172Z,3.10
2022-09-18T14:59:56.582Z,3.85
2022-09-18T15:01:00.150Z,5.47
2022-09-18T15:02:20.603Z,3.40
2022-09-18T15:03:26.504Z,3.88
2022-09-18T15:04:30.879Z,5.97
2022-09-18T15:05:34.211Z,3.30
2022-09-18T15:06:40.027Z,5.82
2022-09-18T15:07:48.085Z,3.20
2022-09-18T15:08:53.494Z,5.57
2022-09-18T15:09:59.868Z,5.28
2022-09-18T15:11:03.224Z,4.25
2022-09-18T15:12:15.106Z,5.35